createdAt,value
2023-07-06T00:01:05.850Z,26.99
2023-07-06T00:11:11.234Z,26.99
2023-07-06T00:21:16.434Z,26.99
2023-07-06T00:31:21.751Z,26.98
2023-07-06T00:41:27.047Z,26.96
2023-07-06T00:51:32.481Z,26.95
2023-07-06T01:01:37.923Z,26.94
2023-07-06T01:11:43.719Z,26.93
2023-07-06T01:21:48.746Z,26.93
2023-07-06T01:31:54.092Z,26.92
2023-07-06T01:41:59.486Z,26.90
2023-07-06T01:52:05.015Z,26.89
2023-07-06T02:02:10.754Z,26.87
2023-07-06T02:12:16.166Z,26.86
2023-07-06T02:22:21.465Z,26.85
2023-07-06T02:32:27.066Z,26.85
2023-07-06T02:42:32.459Z,26.84
2023-07-06T02:52:37.743Z,26.83
2023-07-06T03:02:43.109Z,26.82
2023-07-06T03:12:48.937Z,26.81
2023-07-06T03:22:54.148Z,26.81
2023-07-06T03:32:59.489Z,26.80
2023-07-06T03:43:04.853Z,26.80
2023-07-06T03:53:09.918Z,26.80
2023-07-06T04:03:15.537Z,26.80
2023-07-06T04:13:21.200Z,26.83
2023-07-06T04:23:26.775Z,26.84
2023-07-06T04:33:32.019Z,26.85
2023-07-06T04:43:37.260Z,26.86
2023-07-06T04:53:42.705Z,26.91
2023-07-06T05:03:48.254Z,26.93
2023-07-06T05:13:53.593Z,26.97
2023-07-06T05:23:59.245Z,26.98
2023-07-06T05:34:04.828Z,27.02
2023-07-06T05:44:10.339Z,27.03
2023-07-06T05:54:18.611Z,27.04
2023-07-06T06:04:24.608Z,27.03
2023-07-06T06:14:30.122Z,27.01
2023-07-06T06:24:35.544Z,27.00
2023-07-06T06:34:41.258Z,26.98
2023-07-06T06:44:46.769Z,26.96
2023-07-06T06:54:52.553Z,26.96
2023-07-06T07:04:58.287Z,26.94
2023-07-06T07:15:03.969Z,26.92
2023-07-06T07:25:09.469Z,26.91
2023-07-06T07:35:15.059Z,26.90
2023-07-06T07:45:20.527Z,26.89
2023-07-06T07:55:26.443Z,26.89
2023-07-06T08:05:31.726Z,26.88
2023-07-06T08:15:37.357Z,26.87
2023-07-06T08:25:43.169Z,26.86
2023-07-06T08:35:48.221Z,26.85
2023-07-06T08:45:53.479Z,26.83
2023-07-06T08:55:59.092Z,26.84
2023-07-06T09:06:04.784Z,26.83
2023-07-06T09:16:10.128Z,26.80
2023-07-06T09:26:32.202Z,26.80
2023-07-06T09:36:25.638Z,26.80
2023-07-06T09:46:31.003Z,26.82
2023-07-06T09:56:36.334Z,26.84
2023-07-06T10:06:41.599Z,26.87
2023-07-06T10:16:47.090Z,26.90
2023-07-06T10:26:53.754Z,26.91
2023-07-06T10:36:59.246Z,26.94
2023-07-06T10:47:04.599Z,26.98
2023-07-06T10:57:10.148Z,27.04
2023-07-06T11:07:15.472Z,27.04
2023-07-06T11:17:20.929Z,27.05
2023-07-06T11:27:26.453Z,27.07
2023-07-06T11:37:39.112Z,26.97
2023-07-06T11:47:42.306Z,26.95
2023-07-06T11:57:48.184Z,26.97
2023-07-06T12:07:53.689Z,26.98
2023-07-06T12:18:00.957Z,26.96
2023-07-06T12:28:08.977Z,26.97
2023-07-06T12:38:14.374Z,26.98
2023-07-06T12:48:19.276Z,26.98
2023-07-06T12:58:24.476Z,27.02
2023-07-06T13:08:30.053Z,27.09
2023-07-06T13:18:35.261Z,27.09
2023-07-06T13:28:40.780Z,27.08
2023-07-06T13:38:46.984Z,27.00
2023-07-06T13:48:52.460Z,26.98
2023-07-06T13:58:57.675Z,26.93
2023-07-06T14:09:03.374Z,26.94
2023-07-06T14:19:09.688Z,26.96
2023-07-06T14:29:15.215Z,26.95
2023-07-06T14:39:20.612Z,26.90
2023-07-06T14:49:25.905Z,26.87
2023-07-06T14:59:31.279Z,26.84
2023-07-06T15:09:37.506Z,26.86
2023-07-06T15:19:43.084Z,26.84
2023-07-06T15:29:48.549Z,26.81
2023-07-06T15:39:54.027Z,26.85
2023-07-06T15:49:59.542Z,26.88
2023-07-06T16:00:10.845Z,26.89
2023-07-06T16:10:15.974Z,26.89
2023-07-06T16:20:22.169Z,26.85
2023-07-06T16:30:27.956Z,26.81
2023-07-06T16:40:33.582Z,26.82
2023-07-06T16:50:39.370Z,26.77
2023-07-06T17:00:44.286Z,26.76
2023-07-06T17:10:49.791Z,26.73
2023-07-06T17:20:55.239Z,26.69
2023-07-06T17:31:00.623Z,26.66
2023-07-06T17:41:05.931Z,26.64
2023-07-06T17:51:11.466Z,26.66
2023-07-06T18:01:17.906Z,26.66
2023-07-06T18:11:23.146Z,26.67
2023-07-06T18:21:28.298Z,26.70
2023-07-06T18:31:34.005Z,26.69
2023-07-06T18:41:39.211Z,26.73
2023-07-06T18:51:45.589Z,26.74
2023-07-06T19:01:51.000Z,26.69
2023-07-06T19:11:56.246Z,26.77
2023-07-06T19:22:01.566Z,26.79
2023-07-06T19:32:16.716Z,26.71
2023-07-06T19:42:17.597Z,26.84
2023-07-06T19:52:23.013Z,26.90
2023-07-06T20:02:28.393Z,26.94
2023-07-06T20:12:33.631Z,26.96
2023-07-06T20:22:39.610Z,26.97
2023-07-06T20:32:45.066Z,26.97
2023-07-06T20:42:50.601Z,26.95
2023-07-06T20:52:56.134Z,26.94
2023-07-06T21:03:01.589Z,26.93
2023-07-06T21:13:07.126Z,26.91
2023-07-06T21:23:12.713Z,26.90
2023-07-06T21:33:18.215Z,26.89
2023-07-06T21:43:23.876Z,26.88
2023-07-06T21:53:29.216Z,26.86
2023-07-06T22:03:34.822Z,26.86
2023-07-06T22:13:40.236Z,26.84
2023-07-06T22:23:45.844Z,26.84
2023-07-06T22:33:51.309Z,26.84
2023-07-06T22:43:56.534Z,26.82
2023-07-06T22:54:02.024Z,26.81
2023-07-06T23:04:07.766Z,26.81
2023-07-06T23:14:12.959Z,26.80
2023-07-06T23:24:19.157Z,26.80
2023-07-06T23:34:24.813Z,26.77
2023-07-06T23:44:30.300Z,26.76
2023-07-06T23:54:35.989Z,26.75
